createdAt,value
2019-03-30T00:00:14.449Z,1019.53
2019-03-30T00:01:14.471Z,1019.52
2019-03-30T00:02:14.488Z,1019.52
2019-03-30T00:03:14.504Z,1019.47
2019-03-30T00:04:14.534Z,1019.48
2019-03-30T00:05:14.537Z,1019.52
2019-03-30T00:06:14.562Z,1019.47
2019-03-30T00:07:14.574Z,1019.50
2019-03-30T00:08:14.597Z,1019.48
2019-03-30T00:09:14.611Z,1019.50
2019-03-30T00:10:14.628Z,1019.46
2019-03-30T00:11:14.643Z,1019.48
2019-03-30T00:12:14.661Z,1019.41
2019-03-30T00:13:14.713Z,1019.44
2019-03-30T00:14:14.699Z,1019.43
2019-03-30T00:15:14.717Z,1019.42
2019-03-30T00:16:14.735Z,1019.39
2019-03-30T00:17:14.757Z,1019.40
2019-03-30T00:18:14.767Z,1019.43
2019-03-30T00:19:14.791Z,1019.35
2019-03-30T00:20:14.807Z,1019.40
2019-03-30T00:21:14.845Z,1019.39
2019-03-30T00:22:14.843Z,1019.36
2019-03-30T00:23:14.853Z,1019.39
2019-03-30T00:24:14.875Z,1019.35
2019-03-30T00:25:14.893Z,1019.33
2019-03-30T00:26:15.209Z,1019.35
2019-03-30T00:27:14.963Z,1019.37
2019-03-30T00:28:15.021Z,1019.34
2019-03-30T00:29:15.017Z,1019.33
2019-03-30T00:30:14.976Z,1019.32
2019-03-30T00:31:14.995Z,1019.34
2019-03-30T00:32:15.017Z,1019.34
2019-03-30T00:33:15.035Z,1019.33
2019-03-30T00:34:15.058Z,1019.29
2019-03-30T00:35:15.069Z,1019.30
2019-03-30T00:36:15.083Z,1019.31
2019-03-30T00:37:15.109Z,1019.32
2019-03-30T00:38:15.122Z,1019.28
2019-03-30T00:39:15.144Z,1019.28
2019-03-30T00:40:15.152Z,1019.31
2019-03-30T00:41:15.167Z,1019.28
2019-03-30T00:42:15.187Z,1019.27
2019-03-30T00:43:15.203Z,1019.21
2019-03-30T00:44:15.226Z,1019.25
2019-03-30T00:45:15.236Z,1019.29
2019-03-30T00:46:15.255Z,1019.26
2019-03-30T00:47:15.271Z,1019.26
2019-03-30T00:48:15.288Z,1019.27
2019-03-30T00:49:15.307Z,1019.21
2019-03-30T00:50:15.325Z,1019.25
2019-03-30T00:51:15.347Z,1019.28
2019-03-30T00:52:15.361Z,1019.25
2019-03-30T00:53:15.379Z,1019.23
2019-03-30T00:54:15.403Z,1019.25
2019-03-30T00:55:15.408Z,1019.22
2019-03-30T00:56:15.430Z,1019.19
2019-03-30T00:57:15.450Z,1019.20
2019-03-30T00:58:15.464Z,1019.19
2019-03-30T00:59:15.486Z,1019.16
2019-03-30T01:00:15.495Z,1019.12
2019-03-30T01:01:15.516Z,1019.13
2019-03-30T01:02:15.530Z,1019.16
2019-03-30T01:03:15.616Z,1019.15
2019-03-30T01:04:15.564Z,1019.16
2019-03-30T01:05:15.586Z,1019.15
2019-03-30T01:06:15.601Z,1019.14
2019-03-30T01:07:15.617Z,1019.14
2019-03-30T01:08:15.635Z,1019.14
2019-03-30T01:09:15.651Z,1019.12
2019-03-30T01:10:15.667Z,1019.13
2019-03-30T01:11:15.990Z,1019.12
2019-03-30T01:12:15.704Z,1019.14
2019-03-30T01:13:15.721Z,1019.06
2019-03-30T01:14:15.986Z,1019.06
2019-03-30T01:15:15.752Z,1019.04
2019-03-30T01:16:15.772Z,1019.04
2019-03-30T01:17:15.989Z,1019.06
2019-03-30T01:18:15.836Z,1019.03
2019-03-30T01:19:15.820Z,1019.02
2019-03-30T01:20:15.840Z,1018.99
2019-03-30T01:21:15.857Z,1019.00
2019-03-30T01:22:15.872Z,1019.00
2019-03-30T01:23:15.895Z,1018.98
2019-03-30T01:24:15.913Z,1018.97
2019-03-30T01:25:15.925Z,1019.00
2019-03-30T01:26:15.940Z,1018.98
2019-03-30T01:27:15.956Z,1018.96
2019-03-30T01:28:15.976Z,1019.02
2019-03-30T01:29:15.990Z,1018.99
2019-03-30T01:30:22.933Z,1019.03
2019-03-30T01:31:16.027Z,1018.96
2019-03-30T01:32:16.047Z,1018.96
2019-03-30T01:33:16.067Z,1019.02
2019-03-30T01:34:16.076Z,1018.98
2019-03-30T01:35:16.214Z,1018.97
2019-03-30T01:36:16.113Z,1018.95
2019-03-30T01:37:16.135Z,1018.96
2019-03-30T01:38:16.143Z,1018.97
2019-03-30T01:39:16.164Z,1018.90
2019-03-30T01:40:16.185Z,1018.91
2019-03-30T01:41:16.198Z,1018.94
2019-03-30T01:42:16.213Z,1018.90
2019-03-30T01:43:16.227Z,1018.91
2019-03-30T01:44:16.251Z,1018.87
2019-03-30T01:45:16.263Z,1018.85
2019-03-30T01:46:16.281Z,1018.87
2019-03-30T01:47:16.297Z,1018.84
2019-03-30T01:48:16.313Z,1018.85
2019-03-30T01:49:16.336Z,1018.85
2019-03-30T01:50:17.960Z,1018.82
2019-03-30T01:51:16.363Z,1018.80
2019-03-30T01:52:16.380Z,1018.83
2019-03-30T01:53:16.404Z,1018.81
2019-03-30T01:54:16.417Z,1018.76
2019-03-30T01:55:16.439Z,1018.77
2019-03-30T01:56:16.448Z,1018.76
2019-03-30T01:57:16.473Z,1018.74
2019-03-30T01:58:16.483Z,1018.70
2019-03-30T01:59:16.504Z,1018.69
2019-03-30T02:00:16.517Z,1018.66
2019-03-30T02:01:16.532Z,1018.67
2019-03-30T02:02:16.549Z,1018.65
2019-03-30T02:03:16.635Z,1018.63
2019-03-30T02:04:16.584Z,1018.62
2019-03-30T02:05:16.601Z,1018.63
2019-03-30T02:06:16.619Z,1018.64
2019-03-30T02:07:16.635Z,1018.59
2019-03-30T02:08:16.653Z,1018.57
2019-03-30T02:09:16.668Z,1018.58
2019-03-30T02:10:16.686Z,1018.54
2019-03-30T02:11:16.752Z,1018.51
2019-03-30T02:12:16.719Z,1018.52
2019-03-30T02:13:16.733Z,1018.53
2019-03-30T02:14:16.757Z,1018.52
2019-03-30T02:15:16.766Z,1018.50
2019-03-30T02:16:16.783Z,1018.50
2019-03-30T02:17:20.069Z,1018.49
2019-03-30T02:18:16.819Z,1018.48
2019-03-30T02:19:16.835Z,1018.51
2019-03-30T02:20:30.192Z,1018.48
2019-03-30T02:21:16.867Z,1018.49
2019-03-30T02:22:16.913Z,1018.48
2019-03-30T02:23:16.994Z,1018.40
2019-03-30T02:24:16.922Z,1018.44
2019-03-30T02:25:16.936Z,1018.44
2019-03-30T02:26:16.957Z,1018.43
2019-03-30T02:27:16.971Z,1018.44
2019-03-30T02:28:16.984Z,1018.45
2019-03-30T02:29:17.002Z,1018.41
2019-03-30T02:30:17.019Z,1018.42
2019-03-30T02:31:17.033Z,1018.43
2019-03-30T02:32:17.058Z,1018.39
2019-03-30T02:33:17.077Z,1018.39
2019-03-30T02:34:17.085Z,1018.39
2019-03-30T02:35:17.112Z,1018.43
2019-03-30T02:36:17.121Z,1018.43
2019-03-30T02:37:17.131Z,1018.45
2019-03-30T02:38:17.150Z,1018.46
2019-03-30T02:39:17.165Z,1018.42
2019-03-30T02:40:17.182Z,1018.42
2019-03-30T02:41:17.207Z,1018.39
2019-03-30T02:42:17.213Z,1018.41
2019-03-30T02:43:17.229Z,1018.41
2019-03-30T02:44:17.246Z,1018.39
2019-03-30T02:45:17.265Z,1018.36
2019-03-30T02:46:17.282Z,1018.37
2019-03-30T02:47:17.298Z,1018.34
2019-03-30T02:48:17.313Z,1018.33
2019-03-30T02:49:17.330Z,1018.34
2019-03-30T02:50:17.343Z,1018.34
2019-03-30T02:51:17.363Z,1018.35
2019-03-30T02:52:17.382Z,1018.33
2019-03-30T02:53:17.401Z,1018.34
2019-03-30T02:54:17.409Z,1018.32
2019-03-30T02:55:17.436Z,1018.33
2019-03-30T02:56:17.444Z,1018.36
2019-03-30T02:57:17.457Z,1018.33
2019-03-30T02:58:17.473Z,1018.32
2019-03-30T02:59:17.492Z,1018.33
2019-03-30T03:00:17.512Z,1018.33
2019-03-30T03:01:17.523Z,1018.31
2019-03-30T03:02:17.543Z,1018.35
2019-03-30T03:03:17.558Z,1018.29
2019-03-30T03:04:17.572Z,1018.26
2019-03-30T03:05:17.603Z,1018.25
2019-03-30T03:06:17.606Z,1018.26
2019-03-30T03:07:17.627Z,1018.24
2019-03-30T03:08:17.637Z,1018.19
2019-03-30T03:09:17.661Z,1018.17
2019-03-30T03:10:17.686Z,1018.20
2019-03-30T03:11:17.685Z,1018.19
2019-03-30T03:12:17.704Z,1018.17
2019-03-30T03:13:17.719Z,1018.15
2019-03-30T03:14:17.735Z,1018.16
2019-03-30T03:15:17.763Z,1018.15
2019-03-30T03:16:17.780Z,1018.11
2019-03-30T03:17:17.818Z,1018.11
2019-03-30T03:18:17.813Z,1018.12
2019-03-30T03:19:17.822Z,1018.08
2019-03-30T03:20:17.860Z,1018.07
2019-03-30T03:21:17.854Z,1018.06
2019-03-30T03:22:17.870Z,1018.05
2019-03-30T03:23:17.884Z,1018.01
2019-03-30T03:24:17.900Z,1018.02
2019-03-30T03:25:17.914Z,1017.98
2019-03-30T03:26:17.933Z,1018.02
2019-03-30T03:27:17.949Z,1017.95
2019-03-30T03:28:17.991Z,1017.98
2019-03-30T03:29:17.983Z,1017.98
2019-03-30T03:30:18.002Z,1017.95
2019-03-30T03:31:18.018Z,1017.96
2019-03-30T03:32:18.182Z,1017.93
2019-03-30T03:33:18.051Z,1017.91
2019-03-30T03:34:18.067Z,1017.91
2019-03-30T03:35:18.087Z,1017.91
2019-03-30T03:36:18.098Z,1017.91
2019-03-30T03:37:18.109Z,1017.95
2019-03-30T03:38:18.124Z,1017.94
2019-03-30T03:39:18.140Z,1017.91
2019-03-30T03:40:18.156Z,1017.91
2019-03-30T03:41:18.176Z,1017.94
2019-03-30T03:42:18.204Z,1017.96
2019-03-30T03:43:18.206Z,1017.92
2019-03-30T03:44:18.227Z,1017.89
2019-03-30T03:45:18.247Z,1017.91
2019-03-30T03:46:18.256Z,1017.89
2019-03-30T03:47:18.279Z,1017.90
2019-03-30T03:48:18.288Z,1017.88
2019-03-30T03:49:18.313Z,1017.85
2019-03-30T03:50:18.319Z,1017.87
2019-03-30T03:51:25.976Z,1017.83
2019-03-30T03:52:18.351Z,1017.78
2019-03-30T03:53:18.376Z,1017.83
2019-03-30T03:54:18.391Z,1017.86
2019-03-30T03:55:18.407Z,1017.79
2019-03-30T03:56:18.419Z,1017.82
2019-03-30T03:57:18.434Z,1017.78
2019-03-30T03:58:18.449Z,1017.79
2019-03-30T03:59:18.470Z,1017.75
2019-03-30T04:00:18.483Z,1017.74
2019-03-30T04:01:18.497Z,1017.75
2019-03-30T04:02:18.524Z,1017.70
2019-03-30T04:03:18.537Z,1017.69
2019-03-30T04:04:18.602Z,1017.70
2019-03-30T04:05:18.569Z,1017.70
2019-03-30T04:06:18.584Z,1017.66
2019-03-30T04:07:18.594Z,1017.69
2019-03-30T04:08:18.611Z,1017.60
2019-03-30T04:09:18.628Z,1017.58
2019-03-30T04:10:18.647Z,1017.59
2019-03-30T04:11:18.699Z,1017.57
2019-03-30T04:12:18.678Z,1017.59
2019-03-30T04:13:18.690Z,1017.56
2019-03-30T04:14:18.706Z,1017.59
2019-03-30T04:15:18.721Z,1017.58
2019-03-30T04:16:18.739Z,1017.55
2019-03-30T04:17:18.753Z,1017.59
2019-03-30T04:18:18.777Z,1017.56
2019-03-30T04:19:18.786Z,1017.56
2019-03-30T04:20:18.806Z,1017.59
2019-03-30T04:21:18.822Z,1017.60
2019-03-30T04:22:18.851Z,1017.58
2019-03-30T04:23:18.852Z,1017.58
2019-03-30T04:24:18.865Z,1017.57
2019-03-30T04:25:18.882Z,1017.57
2019-03-30T04:26:18.908Z,1017.55
2019-03-30T04:27:18.924Z,1017.61
2019-03-30T04:28:18.943Z,1017.55
2019-03-30T04:29:18.988Z,1017.53
2019-03-30T04:30:18.963Z,1017.50
2019-03-30T04:31:18.982Z,1017.48
2019-03-30T04:32:18.994Z,1017.54
2019-03-30T04:33:19.011Z,1017.50
2019-03-30T04:34:19.032Z,1017.50
2019-03-30T04:35:19.066Z,1017.50
2019-03-30T04:36:19.061Z,1017.47
2019-03-30T04:37:19.083Z,1017.45
2019-03-30T04:38:19.091Z,1017.46
2019-03-30T04:39:19.107Z,1017.47
2019-03-30T04:40:19.189Z,1017.43
2019-03-30T04:41:19.147Z,1017.48
2019-03-30T04:42:19.155Z,1017.43
2019-03-30T04:43:19.174Z,1017.47
2019-03-30T04:44:19.194Z,1017.41
2019-03-30T04:45:19.208Z,1017.43
2019-03-30T04:46:19.224Z,1017.39
2019-03-30T04:47:19.238Z,1017.39
2019-03-30T04:48:19.260Z,1017.36
2019-03-30T04:49:19.272Z,1017.41
2019-03-30T04:50:19.306Z,1017.36
2019-03-30T04:51:19.302Z,1017.33
2019-03-30T04:52:19.319Z,1017.33
2019-03-30T04:53:19.334Z,1017.30
2019-03-30T04:54:19.357Z,1017.26
2019-03-30T04:55:19.371Z,1017.27
2019-03-30T04:56:19.384Z,1017.25
2019-03-30T04:57:19.399Z,1017.27
2019-03-30T04:58:19.420Z,1017.30
2019-03-30T04:59:19.432Z,1017.24
2019-03-30T05:00:19.460Z,1017.28
2019-03-30T05:01:19.462Z,1017.25
2019-03-30T05:02:19.480Z,1017.25
2019-03-30T05:03:19.495Z,1017.24
2019-03-30T05:04:19.510Z,1017.24
2019-03-30T05:05:19.535Z,1017.22
2019-03-30T05:06:19.546Z,1017.22
2019-03-30T05:07:19.559Z,1017.19
2019-03-30T05:08:19.574Z,1017.25
2019-03-30T05:09:19.593Z,1017.18
2019-03-30T05:10:19.614Z,1017.24
2019-03-30T05:11:19.621Z,1017.17
2019-03-30T05:12:19.645Z,1017.18
2019-03-30T05:13:19.669Z,1017.18
2019-03-30T05:14:19.680Z,1017.19
2019-03-30T05:15:19.689Z,1017.19
2019-03-30T05:16:19.704Z,1017.21
2019-03-30T05:17:19.722Z,1017.24
2019-03-30T05:18:19.735Z,1017.26
2019-03-30T05:19:19.759Z,1017.26
2019-03-30T05:20:19.768Z,1017.27
2019-03-30T05:21:19.789Z,1017.19
2019-03-30T05:22:19.801Z,1017.21
2019-03-30T05:23:19.817Z,1017.20
2019-03-30T05:24:19.840Z,1017.23
2019-03-30T05:25:19.855Z,1017.20
2019-03-30T05:26:19.865Z,1017.18
2019-03-30T05:27:19.880Z,1017.24
2019-03-30T05:28:19.894Z,1017.20
2019-03-30T05:29:19.913Z,1017.21
2019-03-30T05:30:19.927Z,1017.23
2019-03-30T05:31:19.949Z,1017.16
2019-03-30T05:32:19.960Z,1017.19
2019-03-30T05:33:19.975Z,1017.21
2019-03-30T05:34:19.991Z,1017.18
2019-03-30T05:35:20.006Z,1017.15
2019-03-30T05:36:20.024Z,1017.17
2019-03-30T05:37:20.047Z,1017.20
2019-03-30T05:38:20.058Z,1017.21
2019-03-30T05:39:20.072Z,1017.20
2019-03-30T05:40:20.088Z,1017.20
2019-03-30T05:41:20.177Z,1017.15
2019-03-30T05:42:20.118Z,1017.18
2019-03-30T05:43:20.133Z,1017.18
2019-03-30T05:44:20.153Z,1017.20
2019-03-30T05:45:20.168Z,1017.17
2019-03-30T05:46:20.182Z,1017.18
2019-03-30T05:47:20.196Z,1017.15
2019-03-30T05:48:20.215Z,1017.16
2019-03-30T05:49:20.229Z,1017.14
2019-03-30T05:50:20.246Z,1017.15
2019-03-30T05:51:20.260Z,1017.14
2019-03-30T05:52:26.435Z,1017.18
2019-03-30T05:53:20.293Z,1017.17
2019-03-30T05:54:20.310Z,1017.13
2019-03-30T05:55:20.325Z,1017.18
2019-03-30T05:56:20.342Z,1017.15
2019-03-30T05:57:20.355Z,1017.10
2019-03-30T05:58:20.380Z,1017.13
2019-03-30T05:59:20.391Z,1017.13
2019-03-30T06:00:20.410Z,1017.12
2019-03-30T06:01:20.420Z,1017.15
2019-03-30T06:02:20.437Z,1017.08
2019-03-30T06:03:20.456Z,1017.13
2019-03-30T06:04:20.468Z,1017.11
2019-03-30T06:05:20.482Z,1017.15
2019-03-30T06:06:20.500Z,1017.10
2019-03-30T06:07:20.515Z,1017.11
2019-03-30T06:08:20.530Z,1017.12
2019-03-30T06:09:20.546Z,1017.10
2019-03-30T06:10:20.575Z,1017.07
2019-03-30T06:11:20.579Z,1017.08
2019-03-30T06:12:20.601Z,1017.07
2019-03-30T06:13:20.615Z,1017.09
2019-03-30T06:14:20.628Z,1017.09
2019-03-30T06:15:20.649Z,1017.10
2019-03-30T06:16:20.659Z,1017.11
2019-03-30T06:17:20.675Z,1017.05
2019-03-30T06:18:20.689Z,1017.06
2019-03-30T06:19:20.708Z,1017.08
2019-03-30T06:20:20.724Z,1017.06
2019-03-30T06:21:20.740Z,1017.05
2019-03-30T06:22:20.761Z,1017.09
2019-03-30T06:23:20.772Z,1017.06
2019-03-30T06:24:20.785Z,1017.07
2019-03-30T06:25:20.807Z,1017.04
2019-03-30T06:26:20.817Z,1017.05
2019-03-30T06:27:20.834Z,1017.04
2019-03-30T06:28:20.848Z,1017.06
2019-03-30T06:29:20.865Z,1017.03
2019-03-30T06:30:20.889Z,1017.07
2019-03-30T06:31:20.905Z,1017.06
2019-03-30T06:32:20.933Z,1017.04
2019-03-30T06:33:20.929Z,1017.03
2019-03-30T06:34:20.949Z,1017.05
2019-03-30T06:35:20.964Z,1017.06
2019-03-30T06:36:20.981Z,1017.07
2019-03-30T06:37:20.998Z,1017.08
2019-03-30T06:38:21.010Z,1017.12
2019-03-30T06:39:21.027Z,1017.09
2019-03-30T06:40:21.043Z,1017.08
2019-03-30T06:41:21.063Z,1017.11
2019-03-30T06:42:21.077Z,1017.13
2019-03-30T06:43:21.090Z,1017.13
2019-03-30T06:44:21.108Z,1017.15
2019-03-30T06:45:21.131Z,1017.12
2019-03-30T06:46:21.142Z,1017.13
2019-03-30T06:47:21.155Z,1017.11
2019-03-30T06:48:21.172Z,1017.17
2019-03-30T06:49:21.188Z,1017.19
2019-03-30T06:50:21.207Z,1017.14
2019-03-30T06:51:21.223Z,1017.17
2019-03-30T06:52:21.244Z,1017.22
2019-03-30T06:53:21.266Z,1017.14
2019-03-30T06:54:21.271Z,1017.15
2019-03-30T06:55:21.288Z,1017.18
2019-03-30T06:56:21.303Z,1017.16
2019-03-30T06:57:21.324Z,1017.16
2019-03-30T06:58:21.337Z,1017.16
2019-03-30T06:59:21.354Z,1017.14
2019-03-30T07:00:21.375Z,1017.13
2019-03-30T07:01:21.386Z,1017.11
2019-03-30T07:02:21.405Z,1017.14
2019-03-30T07:03:21.423Z,1017.14
2019-03-30T07:04:21.436Z,1017.14
2019-03-30T07:05:21.459Z,1017.11
2019-03-30T07:06:21.473Z,1017.17
2019-03-30T07:07:21.486Z,1017.11
2019-03-30T07:08:21.505Z,1017.12
2019-03-30T07:09:21.520Z,1017.10
2019-03-30T07:10:21.539Z,1017.09
2019-03-30T07:11:21.679Z,1017.06
2019-03-30T07:12:21.579Z,1017.04
2019-03-30T07:13:21.593Z,1017.07
2019-03-30T07:14:21.607Z,1017.03
2019-03-30T07:15:21.620Z,1017.05
2019-03-30T07:16:21.640Z,1017.04
2019-03-30T07:17:21.675Z,1017.03
2019-03-30T07:18:21.676Z,1017.09
2019-03-30T07:19:21.691Z,1017.09
2019-03-30T07:20:21.713Z,1017.09
2019-03-30T07:21:21.724Z,1017.06
2019-03-30T07:22:21.748Z,1017.06
2019-03-30T07:23:21.766Z,1017.05
2019-03-30T07:24:21.775Z,1017.08
2019-03-30T07:25:21.792Z,1017.06
2019-03-30T07:26:21.807Z,1017.07
2019-03-30T07:27:21.839Z,1017.03
2019-03-30T07:28:21.852Z,1017.06
2019-03-30T07:29:21.866Z,1017.05
2019-03-30T07:30:21.879Z,1017.01
2019-03-30T07:31:21.898Z,1017.07
2019-03-30T07:32:21.913Z,1017.05
2019-03-30T07:33:21.935Z,1017.05
2019-03-30T07:34:21.950Z,1017.08
2019-03-30T07:35:21.963Z,1017.07
2019-03-30T07:36:21.991Z,1017.09
2019-03-30T07:37:22.030Z,1017.06
2019-03-30T07:38:22.018Z,1017.01
2019-03-30T07:39:22.031Z,1017.01
2019-03-30T07:40:22.049Z,1017.02
2019-03-30T07:41:22.066Z,1016.99
2019-03-30T07:42:22.086Z,1016.96
2019-03-30T07:43:22.103Z,1017.03
2019-03-30T07:44:22.122Z,1017.02
2019-03-30T07:45:22.143Z,1017.02
2019-03-30T07:46:22.157Z,1017.05
2019-03-30T07:47:22.171Z,1017.06
2019-03-30T07:48:22.197Z,1017.03
2019-03-30T07:49:22.206Z,1016.99
2019-03-30T07:50:22.231Z,1017.00
2019-03-30T07:51:22.244Z,1016.97
2019-03-30T07:52:22.261Z,1016.94
2019-03-30T07:53:26.760Z,1016.92
2019-03-30T07:54:22.295Z,1016.92
2019-03-30T07:55:22.316Z,1016.93
2019-03-30T07:56:22.332Z,1016.90
2019-03-30T07:57:22.358Z,1016.95
2019-03-30T07:58:22.367Z,1016.92
2019-03-30T07:59:22.384Z,1016.95
2019-03-30T08:00:22.411Z,1016.98
2019-03-30T08:01:22.433Z,1016.96
2019-03-30T08:02:22.441Z,1016.96
2019-03-30T08:03:22.464Z,1016.97
2019-03-30T08:04:22.475Z,1016.97
2019-03-30T08:05:22.498Z,1017.00
2019-03-30T08:06:22.510Z,1017.01
2019-03-30T08:07:22.533Z,1017.03
2019-03-30T08:08:22.548Z,1017.02
2019-03-30T08:09:22.564Z,1016.97
2019-03-30T08:10:22.584Z,1016.98
2019-03-30T08:11:22.600Z,1017.01
2019-03-30T08:12:22.619Z,1016.96
2019-03-30T08:13:22.640Z,1016.96
2019-03-30T08:14:22.655Z,1016.93
2019-03-30T08:15:22.675Z,1016.90
2019-03-30T08:16:22.692Z,1016.91
2019-03-30T08:17:22.711Z,1016.89
2019-03-30T08:18:22.732Z,1016.86
2019-03-30T08:19:22.747Z,1016.90
2019-03-30T08:20:23.169Z,1016.88
2019-03-30T08:21:22.784Z,1016.86
2019-03-30T08:22:22.805Z,1016.90
2019-03-30T08:23:22.823Z,1016.88
2019-03-30T08:24:22.843Z,1016.88
2019-03-30T08:25:22.859Z,1016.88
2019-03-30T08:26:22.877Z,1016.89
2019-03-30T08:27:22.901Z,1016.91
2019-03-30T08:28:22.923Z,1016.90
2019-03-30T08:29:22.935Z,1016.86
2019-03-30T08:30:22.955Z,1016.86
2019-03-30T08:31:22.972Z,1016.84
2019-03-30T08:32:22.998Z,1016.86
2019-03-30T08:33:23.008Z,1016.85
2019-03-30T08:34:23.028Z,1016.84
2019-03-30T08:35:23.045Z,1016.81
2019-03-30T08:36:23.064Z,1016.81
2019-03-30T08:37:23.083Z,1016.79
2019-03-30T08:38:23.106Z,1016.83
2019-03-30T08:39:23.121Z,1016.81
2019-03-30T08:40:23.142Z,1016.83
2019-03-30T08:41:23.160Z,1016.83
2019-03-30T08:42:23.187Z,1016.82
2019-03-30T08:43:23.200Z,1016.81
2019-03-30T08:44:23.216Z,1016.82
2019-03-30T08:45:23.244Z,1016.86
2019-03-30T08:46:23.254Z,1016.89
2019-03-30T08:47:23.273Z,1016.96
2019-03-30T08:48:23.304Z,1016.89
2019-03-30T08:49:23.312Z,1016.90
2019-03-30T08:50:23.337Z,1016.94
2019-03-30T08:51:23.359Z,1016.97
2019-03-30T08:52:23.376Z,1016.96
2019-03-30T08:53:23.392Z,1016.93
2019-03-30T08:54:23.411Z,1016.93
2019-03-30T08:55:23.438Z,1016.93
2019-03-30T08:56:23.456Z,1016.86
2019-03-30T08:57:23.470Z,1016.89
2019-03-30T08:58:23.491Z,1016.89
2019-03-30T08:59:23.508Z,1016.90
2019-03-30T09:00:23.533Z,1016.90
2019-03-30T09:01:23.550Z,1016.83
2019-03-30T09:02:23.567Z,1016.87
2019-03-30T09:03:23.590Z,1016.90
2019-03-30T09:04:23.608Z,1016.89
2019-03-30T09:05:23.630Z,1016.79
2019-03-30T09:06:23.650Z,1016.90
2019-03-30T09:07:23.666Z,1016.85
2019-03-30T09:08:23.689Z,1016.86
2019-03-30T09:09:23.709Z,1016.83
2019-03-30T09:10:23.727Z,1016.80
2019-03-30T09:11:23.748Z,1016.82
2019-03-30T09:12:23.767Z,1016.79
2019-03-30T09:13:23.787Z,1016.74
2019-03-30T09:14:23.815Z,1016.75
2019-03-30T09:15:23.829Z,1016.76
2019-03-30T09:16:23.847Z,1016.71
2019-03-30T09:17:23.870Z,1016.76
2019-03-30T09:18:23.888Z,1016.76
2019-03-30T09:19:23.916Z,1016.74
2019-03-30T09:20:23.928Z,1016.76
2019-03-30T09:21:23.949Z,1016.77
2019-03-30T09:22:23.978Z,1016.76
2019-03-30T09:23:23.991Z,1016.80
2019-03-30T09:24:24.014Z,1016.77
2019-03-30T09:25:24.031Z,1016.79
2019-03-30T09:26:24.060Z,1016.75
2019-03-30T09:27:24.076Z,1016.73
2019-03-30T09:28:24.192Z,1016.70
2019-03-30T09:29:24.119Z,1016.68
2019-03-30T09:30:24.136Z,1016.70
2019-03-30T09:31:24.155Z,1016.71
2019-03-30T09:32:24.176Z,1016.67
2019-03-30T09:33:24.204Z,1016.70
2019-03-30T09:34:24.219Z,1016.66
2019-03-30T09:35:24.238Z,1016.63
2019-03-30T09:36:24.266Z,1016.60
2019-03-30T09:37:24.278Z,1016.59
2019-03-30T09:38:24.310Z,1016.58
2019-03-30T09:39:24.322Z,1016.55
2019-03-30T09:40:24.342Z,1016.55
2019-03-30T09:41:24.361Z,1016.57
2019-03-30T09:42:24.427Z,1016.50
2019-03-30T09:43:24.412Z,1016.46
2019-03-30T09:44:24.424Z,1016.55
2019-03-30T09:45:24.448Z,1016.46
2019-03-30T09:46:24.475Z,1016.45
2019-03-30T09:47:24.486Z,1016.48
2019-03-30T09:48:24.515Z,1016.46
2019-03-30T09:49:24.538Z,1016.48
2019-03-30T09:50:24.552Z,1016.49
2019-03-30T09:51:24.571Z,1016.44
2019-03-30T09:52:24.594Z,1016.44
2019-03-30T09:53:24.612Z,1016.39
2019-03-30T09:54:24.643Z,1016.39
2019-03-30T09:55:27.225Z,1016.39
2019-03-30T09:56:24.675Z,1016.38
2019-03-30T09:57:24.695Z,1016.34
2019-03-30T09:58:24.723Z,1016.39
2019-03-30T09:59:24.939Z,1016.35
2019-03-30T10:00:24.760Z,1016.38
2019-03-30T10:01:24.781Z,1016.36
2019-03-30T10:02:24.957Z,1016.32
2019-03-30T10:03:24.824Z,1016.34
2019-03-30T10:04:24.844Z,1016.32
2019-03-30T10:05:24.967Z,1016.31
2019-03-30T10:06:33.892Z,1016.34
2019-03-30T10:07:24.909Z,1016.28
2019-03-30T10:08:24.989Z,1016.28
2019-03-30T10:09:24.957Z,1016.23
2019-03-30T10:10:24.971Z,1016.25
2019-03-30T10:11:24.994Z,1016.25
2019-03-30T10:12:25.016Z,1016.25
2019-03-30T10:13:25.036Z,1016.28
2019-03-30T10:14:25.056Z,1016.25
2019-03-30T10:15:25.080Z,1016.18
2019-03-30T10:16:25.098Z,1016.20
2019-03-30T10:17:25.123Z,1016.22
2019-03-30T10:18:25.143Z,1016.19
2019-03-30T10:19:27.863Z,1016.19
2019-03-30T10:20:25.185Z,1016.19
2019-03-30T10:21:25.211Z,1016.17
2019-03-30T10:22:25.236Z,1016.13
2019-03-30T10:23:25.248Z,1016.12
2019-03-30T10:24:37.426Z,1016.19
2019-03-30T10:25:25.293Z,1016.18
2019-03-30T10:26:25.315Z,1016.13
2019-03-30T10:27:25.333Z,1016.16
2019-03-30T10:28:25.355Z,1016.12
2019-03-30T10:29:25.377Z,1016.12
2019-03-30T10:30:25.398Z,1016.10
2019-03-30T10:31:25.422Z,1016.14
2019-03-30T10:32:25.443Z,1016.10
2019-03-30T10:33:25.462Z,1016.13
2019-03-30T10:34:25.484Z,1016.08
2019-03-30T10:35:25.509Z,1016.10
2019-03-30T10:36:25.536Z,1016.13
2019-03-30T10:37:25.549Z,1016.10
2019-03-30T10:38:25.573Z,1016.10
2019-03-30T10:39:25.609Z,1016.11
2019-03-30T10:40:25.617Z,1016.09
2019-03-30T10:41:25.636Z,1016.07
2019-03-30T10:42:25.660Z,1016.06
2019-03-30T10:43:25.679Z,1016.05
2019-03-30T10:44:25.703Z,1016.05
2019-03-30T10:45:25.725Z,1016.04
2019-03-30T10:46:25.753Z,1016.02
2019-03-30T10:47:25.772Z,1016.03
2019-03-30T10:48:25.790Z,1016.01
2019-03-30T10:49:25.810Z,1016.01
2019-03-30T10:50:25.834Z,1015.99
2019-03-30T10:51:25.855Z,1015.99
2019-03-30T10:52:25.880Z,1015.97
2019-03-30T10:53:25.900Z,1015.96
2019-03-30T10:54:25.920Z,1015.95
2019-03-30T10:55:25.944Z,1015.93
2019-03-30T10:56:25.964Z,1015.96
2019-03-30T10:57:25.988Z,1015.89
2019-03-30T10:58:26.017Z,1015.93
2019-03-30T10:59:26.068Z,1015.88
2019-03-30T11:00:26.054Z,1015.83
2019-03-30T11:01:26.080Z,1015.86
2019-03-30T11:02:26.099Z,1015.83
2019-03-30T11:03:26.118Z,1015.83
2019-03-30T11:04:26.142Z,1015.76
2019-03-30T11:05:26.165Z,1015.77
2019-03-30T11:06:26.184Z,1015.74
2019-03-30T11:07:26.211Z,1015.73
2019-03-30T11:08:26.254Z,1015.71
2019-03-30T11:09:26.251Z,1015.73
2019-03-30T11:10:26.278Z,1015.74
2019-03-30T11:11:26.416Z,1015.70
2019-03-30T11:12:26.324Z,1015.70
2019-03-30T11:13:26.338Z,1015.73
2019-03-30T11:14:26.359Z,1015.74
2019-03-30T11:15:26.383Z,1015.71
2019-03-30T11:16:26.405Z,1015.66
2019-03-30T11:17:26.429Z,1015.61
2019-03-30T11:18:26.452Z,1015.64
2019-03-30T11:19:26.472Z,1015.62
2019-03-30T11:20:26.490Z,1015.68
2019-03-30T11:21:26.516Z,1015.70
2019-03-30T11:22:26.535Z,1015.61
2019-03-30T11:23:26.558Z,1015.58
2019-03-30T11:24:26.577Z,1015.67
2019-03-30T11:25:26.602Z,1015.68
2019-03-30T11:26:26.622Z,1015.61
2019-03-30T11:27:26.643Z,1015.57
2019-03-30T11:28:26.670Z,1015.57
2019-03-30T11:29:26.690Z,1015.57
2019-03-30T11:30:26.718Z,1015.60
2019-03-30T11:31:26.733Z,1015.64
2019-03-30T11:32:26.755Z,1015.58
2019-03-30T11:33:26.778Z,1015.56
2019-03-30T11:34:26.801Z,1015.59
2019-03-30T11:35:26.828Z,1015.58
2019-03-30T11:36:26.845Z,1015.50
2019-03-30T11:37:26.865Z,1015.55
2019-03-30T11:38:26.887Z,1015.47
2019-03-30T11:39:26.932Z,1015.49
2019-03-30T11:40:26.940Z,1015.53
2019-03-30T11:41:26.957Z,1015.48
2019-03-30T11:42:26.977Z,1015.51
2019-03-30T11:43:27.001Z,1015.52
2019-03-30T11:44:27.024Z,1015.54
2019-03-30T11:45:27.045Z,1015.52
2019-03-30T11:46:27.069Z,1015.49
2019-03-30T11:47:27.089Z,1015.46
2019-03-30T11:48:27.114Z,1015.44
2019-03-30T11:49:27.135Z,1015.42
2019-03-30T11:50:27.166Z,1015.51
2019-03-30T11:51:27.182Z,1015.44
2019-03-30T11:52:27.202Z,1015.44
2019-03-30T11:53:27.234Z,1015.48
2019-03-30T11:54:27.257Z,1015.49
2019-03-30T11:55:27.274Z,1015.42
2019-03-30T11:56:27.295Z,1015.44
2019-03-30T11:57:27.315Z,1015.38
2019-03-30T11:58:27.339Z,1015.42
2019-03-30T11:59:27.363Z,1015.38
2019-03-30T12:00:27.385Z,1015.40
2019-03-30T12:01:27.408Z,1015.39
2019-03-30T12:02:28.487Z,1015.45
2019-03-30T12:03:27.452Z,1015.43
2019-03-30T12:04:27.476Z,1015.42
2019-03-30T12:05:27.499Z,1015.44